Time;durP1;ratioP1;P1;durP2;ratioP2;P2;SDS_P1;SDS_P2;PMS_P1;PMS_P2;Temp;Humidity;BMP_temperature;BMP_pressure;BME280_temperature;BME280_humidity;BME280_pressure;Samples;Min_cycle;Max_cycle;Signal;HPM_P1;HPM_P2
2024/02/05 00:00:31;;;;;;;8.30;3.70;;;;;;;13.71;76.92;99527.36;106777;1285;73561;-59
2024/02/05 00:02:56;;;;;;;7.30;3.10;;;;;;;13.70;77.01;99528.27;106755;1285;58241;-59
2024/02/05 00:05:22;;;;;;;8.40;3.40;;;;;;;13.70;77.02;99525.52;106759;1285;58319;-59
2024/02/05 00:07:48;;;;;;;8.20;3.30;;;;;;;13.69;77.00;99522.24;106787;1285;58561;-59
2024/02/05 00:10:14;;;;;;;7.80;3.40;;;;;;;13.68;76.84;99518.64;106773;1285;58393;-59
2024/02/05 00:12:40;;;;;;;7.90;3.30;;;;;;;13.68;76.88;99517.13;106679;1285;58329;-59
2024/02/05 00:15:06;;;;;;;8.70;3.60;;;;;;;13.69;76.80;99515.81;106499;1288;58609;-59
2024/02/05 00:17:33;;;;;;;6.70;3.40;;;;;;;13.69;76.80;99511.48;106448;1288;60382;-59
2024/02/05 00:19:58;;;;;;;8.60;3.80;;;;;;;13.68;76.71;99506.84;106516;1288;58482;-60
2024/02/05 00:22:24;;;;;;;7.80;3.60;;;;;;;13.68;76.80;99506.18;106510;1288;58419;-60
2024/02/05 00:24:50;;;;;;;8.40;3.60;;;;;;;13.68;76.71;99503.10;106522;1288;58330;-60
2024/02/05 00:27:16;;;;;;;9.10;3.70;;;;;;;13.67;76.67;99504.90;106470;1288;58629;-59
2024/02/05 00:29:41;;;;;;;8.20;3.70;;;;;;;13.67;76.77;99502.19;106371;1288;58384;-60
2024/02/05 00:32:07;;;;;;;9.50;3.40;;;;;;;13.67;76.74;99500.89;106526;1288;58296;-59
2024/02/05 00:34:32;;;;;;;8.40;3.20;;;;;;;13.67;76.70;99495.75;106509;1288;58245;-60
2024/02/05 00:36:58;;;;;;;8.30;3.70;;;;;;;13.67;76.70;99488.30;106500;1288;59938;-59
2024/02/05 00:39:24;;;;;;;7.60;3.10;;;;;;;13.66;76.70;99484.20;106487;1288;58178;-59
2024/02/05 00:41:49;;;;;;;9.20;3.40;;;;;;;13.66;76.52;99482.73;106486;1288;58365;-59
2024/02/05 00:44:15;;;;;;;9.30;3.40;;;;;;;13.66;76.59;99472.83;106519;1288;58378;-59
2024/02/05 00:46:40;;;;;;;7.80;3.20;;;;;;;13.66;76.67;99467.31;106657;1285;73327;-60
2024/02/05 00:49:06;;;;;;;6.80;3.30;;;;;;;13.65;76.57;99461.59;106766;1285;58185;-59
2024/02/05 00:51:32;;;;;;;8.60;4.20;;;;;;;13.66;76.59;99466.71;106518;1285;58573;-60
2024/02/05 00:53:58;;;;;;;6.40;3.10;;;;;;;13.65;76.49;99468.08;106786;1285;58221;-60
2024/02/05 00:56:25;;;;;;;9.30;3.20;;;;;;;13.64;76.52;99466.95;106797;1285;58319;-60
2024/02/05 00:58:50;;;;;;;8.50;3.80;;;;;;;13.64;76.49;99464.94;106755;1285;58270;-60
2024/02/05 01:01:16;;;;;;;9.40;3.50;;;;;;;13.63;76.45;99465.73;106842;1285;58359;-59
2024/02/05 01:03:42;;;;;;;7.90;3.60;;;;;;;13.63;76.57;99461.63;106726;1287;74389;-59
2024/02/05 01:06:11;;;;;;;10.40;3.70;;;;;;;13.63;76.44;99459.69;106831;1285;58266;-60
2024/02/05 01:08:36;;;;;;;9.50;3.80;;;;;;;13.63;76.48;99456.34;106534;1285;73452;-60
2024/02/05 01:11:02;;;;;;;8.90;3.90;;;;;;;13.62;76.47;99453.31;106778;1286;58238;-60
2024/02/05 01:13:29;;;;;;;7.10;3.70;;;;;;;13.62;76.34;99448.66;106767;1285;58670;-60
2024/02/05 01:15:54;;;;;;;7.80;3.40;;;;;;;13.62;76.43;99447.10;106753;1285;58283;-59
2024/02/05 01:18:19;;;;;;;8.10;3.80;;;;;;;13.61;76.40;99442.44;106756;1285;58590;-60
2024/02/05 01:20:45;;;;;;;7.10;3.60;;;;;;;13.62;76.37;99436.11;106796;1285;58280;-60
2024/02/05 01:23:10;;;;;;;7.00;3.10;;;;;;;13.61;76.43;99431.52;106782;1285;58295;-60
2024/02/05 01:25:36;;;;;;;8.50;3.70;;;;;;;13.61;76.43;99425.84;106819;1285;58295;-60
2024/02/05 01:28:03;;;;;;;8.30;3.70;;;;;;;13.61;76.37;99419.19;106753;1285;58316;-60
2024/02/05 01:30:28;;;;;;;9.80;3.90;;;;;;;13.60;76.21;99421.58;106416;1285;58294;-60
2024/02/05 01:32:54;;;;;;;8.00;3.50;;;;;;;13.60;76.26;99419.34;106774;1285;58167;-60
2024/02/05 01:35:20;;;;;;;8.70;3.50;;;;;;;13.60;76.21;99418.86;106794;1285;58278;-60
2024/02/05 01:37:45;;;;;;;8.20;3.60;;;;;;;13.60;76.27;99415.45;106534;1285;58349;-60
2024/02/05 01:40:11;;;;;;;7.70;3.60;;;;;;;13.59;76.24;99414.89;106661;1285;58288;-60
2024/02/05 01:42:37;;;;;;;8.40;4.10;;;;;;;13.59;76.08;99408.83;106773;1285;58217;-60
2024/02/05 01:45:04;;;;;;;10.80;3.90;;;;;;;13.59;76.03;99407.88;106751;1285;58189;-60
2024/02/05 01:47:32;;;;;;;9.80;3.90;;;;;;;13.59;76.08;99406.79;106666;1285;58340;-60
2024/02/05 01:49:58;;;;;;;7.80;3.40;;;;;;;13.58;76.05;99404.67;106773;1285;73575;-60
2024/02/05 01:52:24;;;;;;;5.80;3.30;;;;;;;13.58;76.11;99401.87;106785;1285;58189;-60
2024/02/05 01:54:50;;;;;;;7.10;3.50;;;;;;;13.57;76.06;99396.58;106467;1285;58205;-60
2024/02/05 01:57:15;;;;;;;7.20;3.40;;;;;;;13.58;75.70;99391.69;106667;1285;58239;-60
2024/02/05 01:59:41;;;;;;;8.70;3.90;;;;;;;13.57;75.75;99393.02;106863;1285;58575;-60
2024/02/05 02:02:08;;;;;;;9.20;3.80;;;;;;;13.56;75.66;99395.27;106757;1285;58620;-60
2024/02/05 02:04:34;;;;;;;10.70;3.90;;;;;;;13.56;75.55;99401.23;106777;1285;58250;-60
2024/02/05 02:07:03;;;;;;;7.10;3.50;;;;;;;13.55;75.46;99396.68;106791;1285;58150;-60
2024/02/05 02:09:29;;;;;;;8.80;3.80;;;;;;;13.55;75.45;99396.86;106831;1285;58221;-59
2024/02/05 02:11:56;;;;;;;8.90;3.80;;;;;;;13.55;75.28;99390.42;106792;1285;58272;-60
2024/02/05 02:14:21;;;;;;;6.50;3.30;;;;;;;13.54;75.34;99382.27;106801;1285;58463;-60
2024/02/05 02:16:47;;;;;;;8.10;3.40;;;;;;;13.54;75.38;99380.88;106782;1285;58278;-60
2024/02/05 02:19:42;;;;;;;12.60;3.90;;;;;;;13.53;75.30;99375.04;106789;1285;58326;-60
2024/02/05 02:22:36;;;;;;;8.00;3.60;;;;;;;13.53;75.23;99378.46;106727;1285;61109;-61
2024/02/05 02:25:02;;;;;;;7.20;3.50;;;;;;;13.52;75.27;99377.60;106754;1285;74722;-61
2024/02/05 02:27:28;;;;;;;9.50;3.60;;;;;;;13.52;75.26;99372.10;106537;1287;58362;-60
2024/02/05 02:29:55;;;;;;;10.60;4.00;;;;;;;13.51;75.15;99365.45;106500;1287;58348;-60
2024/02/05 02:32:40;;;;;;;7.90;3.40;;;;;;;13.50;75.10;99359.79;106433;1288;58268;-60
2024/02/05 02:35:15;;;;;;;7.80;3.90;;;;;;;13.50;75.12;99360.55;106521;1287;61033;-60
2024/02/05 02:38:17;;;;;;;10.30;3.60;;;;;;;13.49;74.97;99360.89;106484;1287;74449;-60
2024/02/05 02:40:46;;;;;;;6.60;3.00;;;;;;;13.49;75.01;99355.48;106530;1287;73617;-60
2024/02/05 02:43:12;;;;;;;6.40;3.30;;;;;;;13.49;75.00;99350.30;106280;1288;73265;-60
2024/02/05 02:45:38;;;;;;;6.40;2.90;;;;;;;13.48;74.92;99342.38;106512;1287;61038;-60
2024/02/05 02:48:04;;;;;;;7.50;3.10;;;;;;;13.48;74.91;99336.80;106508;1287;58680;-60
2024/02/05 02:50:29;;;;;;;5.30;2.90;;;;;;;13.48;74.91;99332.69;106542;1287;58447;-60
2024/02/05 02:52:55;;;;;;;8.40;3.60;;;;;;;13.47;74.85;99329.95;106522;1287;58257;-60
2024/02/05 02:55:20;;;;;;;6.10;2.90;;;;;;;13.47;74.85;99336.50;106542;1287;59583;-61
2024/02/05 02:57:46;;;;;;;7.70;3.60;;;;;;;13.46;74.79;99334.52;106557;1287;60124;-60
2024/02/05 03:00:12;;;;;;;6.90;3.30;;;;;;;13.45;74.87;99331.24;106829;1285;58303;-60
2024/02/05 03:02:39;;;;;;;9.10;3.50;;;;;;;13.45;74.84;99326.36;106795;1285;58180;-60
2024/02/05 03:05:06;;;;;;;7.60;3.50;;;;;;;13.44;74.78;99319.66;106510;1285;58498;-60
2024/02/05 03:07:34;;;;;;;8.10;3.60;;;;;;;13.44;74.72;99315.34;106555;1287;58325;-60
2024/02/05 03:10:05;;;;;;;7.60;3.10;;;;;;;13.44;74.75;99303.59;106789;1285;60219;-60
2024/02/05 03:12:32;;;;;;;7.50;3.10;;;;;;;13.44;74.65;99289.95;106791;1285;75016;-60
2024/02/05 03:14:58;;;;;;;6.30;3.00;;;;;;;13.44;74.68;99286.08;106773;1285;74675;-60
2024/02/05 03:17:23;;;;;;;8.00;3.40;;;;;;;13.43;74.61;99283.05;106761;1285;59091;-59
2024/02/05 03:19:49;;;;;;;8.00;3.40;;;;;;;13.43;74.65;99276.39;106738;1285;58219;-59
2024/02/05 03:22:14;;;;;;;8.30;2.80;;;;;;;13.43;74.67;99274.69;106446;1288;58195;-60
2024/02/05 03:24:40;;;;;;;8.40;3.00;;;;;;;13.43;74.72;99267.70;106843;1285;58120;-60
2024/02/05 03:27:05;;;;;;;5.60;3.10;;;;;;;13.42;74.55;99266.69;106788;1285;72898;-59
2024/02/05 03:29:31;;;;;;;10.40;3.60;;;;;;;13.42;74.47;99265.89;106751;1285;58470;-60
2024/02/05 03:31:56;;;;;;;6.10;2.80;;;;;;;13.41;74.57;99256.05;106791;1285;58361;-60
2024/02/05 03:34:22;;;;;;;7.60;3.00;;;;;;;13.41;74.66;99256.11;106776;1285;58202;-60
2024/02/05 03:36:48;;;;;;;6.80;3.30;;;;;;;13.41;74.50;99256.64;106503;1285;58825;-60
2024/02/05 03:39:14;;;;;;;5.10;2.80;;;;;;;13.41;74.48;99248.52;106739;1285;61100;-60
2024/02/05 03:41:39;;;;;;;5.30;2.70;;;;;;;13.41;74.48;99245.22;106786;1285;58250;-60
2024/02/05 03:44:05;;;;;;;5.50;2.70;;;;;;;13.41;74.50;99241.71;106731;1285;58278;-60
2024/02/05 03:46:30;;;;;;;6.40;2.90;;;;;;;13.40;74.54;99239.92;106799;1285;58772;-60
2024/02/05 03:48:56;;;;;;;7.10;3.20;;;;;;;13.40;74.64;99233.48;106776;1285;58308;-59
2024/02/05 03:51:22;;;;;;;7.20;3.20;;;;;;;13.41;74.50;99234.52;106793;1285;58266;-60
2024/02/05 03:53:51;;;;;;;5.70;3.10;;;;;;;13.40;74.52;99227.06;106819;1285;58261;-60
2024/02/05 03:56:18;;;;;;;6.60;3.10;;;;;;;13.39;74.40;99221.47;106802;1285;74385;-59
2024/02/05 03:58:44;;;;;;;6.40;2.70;;;;;;;13.39;74.51;99225.64;106776;1285;73214;-59
2024/02/05 04:01:09;;;;;;;8.20;3.20;;;;;;;13.39;74.43;99219.52;106685;1285;58663;-59
2024/02/05 04:03:35;;;;;;;5.70;2.70;;;;;;;13.38;74.56;99216.72;106815;1285;58302;-60
2024/02/05 04:06:00;;;;;;;5.90;2.60;;;;;;;13.39;74.42;99217.91;106614;1285;58437;-60
2024/02/05 04:08:26;;;;;;;7.20;2.80;;;;;;;13.38;74.48;99211.91;106682;1285;58221;-60
2024/02/05 04:10:51;;;;;;;6.20;2.70;;;;;;;13.37;74.56;99207.60;106775;1285;58634;-59
2024/02/05 04:13:17;;;;;;;5.80;2.80;;;;;;;13.38;74.55;99197.19;106799;1285;58207;-60
2024/02/05 04:15:43;;;;;;;6.00;2.80;;;;;;;13.38;74.45;99188.97;106806;1285;58246;-60
2024/02/05 04:18:09;;;;;;;6.30;2.60;;;;;;;13.38;74.44;99185.77;106805;1285;58266;-60
2024/02/05 04:20:34;;;;;;;5.70;2.70;;;;;;;13.37;74.50;99188.76;106763;1285;58258;-60
2024/02/05 04:22:59;;;;;;;4.60;2.50;;;;;;;13.37;74.54;99186.34;106815;1285;58318;-60
2024/02/05 04:25:25;;;;;;;5.80;3.00;;;;;;;13.37;74.44;99188.35;106776;1285;74479;-60
2024/02/05 04:27:51;;;;;;;4.90;2.50;;;;;;;13.37;74.43;99184.09;106661;1285;58364;-60
2024/02/05 04:30:16;;;;;;;4.50;2.30;;;;;;;13.36;74.45;99171.70;106794;1285;58604;-60
2024/02/05 04:32:42;;;;;;;5.00;2.60;;;;;;;13.36;74.45;99168.14;106728;1285;58186;-60
2024/02/05 04:35:08;;;;;;;4.90;2.60;;;;;;;13.37;74.22;99168.39;106684;1285;58762;-60
2024/02/05 04:37:34;;;;;;;6.70;3.10;;;;;;;13.36;74.33;99162.95;106824;1285;58318;-60
2024/02/05 04:39:59;;;;;;;5.90;2.50;;;;;;;13.35;74.41;99163.45;106753;1285;73264;-60
2024/02/05 04:42:25;;;;;;;5.50;2.60;;;;;;;13.35;74.30;99164.16;106787;1285;58272;-60
2024/02/05 04:44:50;;;;;;;4.30;2.30;;;;;;;13.35;74.41;99162.42;106856;1285;58195;-60
2024/02/05 04:47:16;;;;;;;4.80;2.20;;;;;;;13.35;74.38;99158.85;106814;1285;58224;-60
2024/02/05 04:49:47;;;;;;;4.50;2.70;;;;;;;13.35;74.41;99155.45;106865;1285;58262;-60
2024/02/05 04:52:12;;;;;;;5.80;2.40;;;;;;;13.34;74.49;99150.10;106799;1285;61151;-60
2024/02/05 04:54:38;;;;;;;6.10;2.60;;;;;;;13.35;74.29;99150.20;106813;1285;58224;-60
2024/02/05 04:57:04;;;;;;;6.10;2.60;;;;;;;13.35;74.47;99148.89;106764;1285;58197;-60
2024/02/05 04:59:29;;;;;;;4.50;2.50;;;;;;;13.35;74.30;99148.73;106558;1285;58305;-60
2024/02/05 05:01:55;;;;;;;6.90;2.40;;;;;;;13.34;74.40;99146.31;106783;1285;58593;-59
2024/02/05 05:04:22;;;;;;;4.50;2.10;;;;;;;13.34;74.32;99141.06;106831;1285;58181;-59
2024/02/05 05:06:48;;;;;;;5.70;2.50;;;;;;;13.35;74.44;99140.61;106821;1285;74537;-59
2024/02/05 05:09:13;;;;;;;5.90;2.60;;;;;;;13.34;74.36;99131.06;106801;1285;58690;-59
2024/02/05 05:11:38;;;;;;;4.40;2.40;;;;;;;13.34;74.41;99131.98;106766;1285;58574;-59
2024/02/05 05:14:04;;;;;;;4.70;2.30;;;;;;;13.33;74.43;99128.98;106844;1285;58758;-60
2024/02/05 05:16:30;;;;;;;4.50;2.40;;;;;;;13.34;74.29;99119.23;106860;1285;58347;-60
2024/02/05 05:18:58;;;;;;;4.30;2.20;;;;;;;13.34;74.37;99124.58;106807;1285;73613;-59
2024/02/05 05:21:24;;;;;;;5.10;2.20;;;;;;;13.34;74.37;99116.45;106801;1285;73287;-59
2024/02/05 05:23:50;;;;;;;5.40;2.20;;;;;;;13.33;74.27;99115.57;106814;1285;58151;-59
2024/02/05 05:26:15;;;;;;;5.30;2.10;;;;;;;13.33;74.41;99111.95;106645;1285;58334;-59
2024/02/05 05:28:43;;;;;;;8.40;2.40;;;;;;;13.33;74.42;99105.89;106824;1285;58503;-59
2024/02/05 05:31:11;;;;;;;4.50;2.20;;;;;;;13.33;74.28;99107.73;106839;1285;58245;-59
2024/02/05 05:33:36;;;;;;;5.50;2.20;;;;;;;13.33;74.31;99108.44;106662;1285;72420;-59
2024/02/05 05:36:03;;;;;;;5.60;2.40;;;;;;;13.34;74.15;99110.19;106794;1285;58564;-59
2024/02/05 05:38:30;;;;;;;5.40;2.40;;;;;;;13.33;74.15;99110.61;106641;1285;58746;-59
2024/02/05 05:40:56;;;;;;;3.70;1.90;;;;;;;13.33;74.23;99109.36;106782;1285;58690;-59
2024/02/05 05:43:21;;;;;;;4.30;2.40;;;;;;;13.32;74.25;99107.25;106796;1285;58209;-60
2024/02/05 05:45:47;;;;;;;4.90;2.50;;;;;;;13.32;74.32;99102.00;106782;1285;58643;-59
2024/02/05 05:48:12;;;;;;;5.50;2.20;;;;;;;13.31;74.12;99100.19;106777;1285;58470;-59
2024/02/05 05:50:38;;;;;;;5.60;2.20;;;;;;;13.32;74.28;99100.49;106877;1285;58711;-59
2024/02/05 05:53:03;;;;;;;5.30;2.30;;;;;;;13.32;74.37;99104.48;106843;1285;72473;-59
2024/02/05 05:55:29;;;;;;;6.40;2.40;;;;;;;13.33;74.27;99097.77;106794;1285;58609;-60
2024/02/05 05:57:54;;;;;;;4.70;1.90;;;;;;;13.32;74.23;99095.25;106780;1285;58240;-59
2024/02/05 06:00:21;;;;;;;4.70;2.30;;;;;;;13.31;74.24;99094.84;106826;1285;58270;-59
2024/02/05 06:02:48;;;;;;;4.20;2.10;;;;;;;13.31;74.25;99094.45;106844;1285;58229;-60
2024/02/05 06:05:13;;;;;;;5.70;2.30;;;;;;;13.31;74.25;99094.36;106801;1285;58322;-60
2024/02/05 06:07:40;;;;;;;10.80;2.30;;;;;;;13.31;74.35;99097.70;106804;1285;58252;-59
2024/02/05 06:10:06;;;;;;;2.70;1.70;;;;;;;13.31;74.40;99097.85;106810;1285;58109;-60
2024/02/05 06:12:32;;;;;;;4.50;2.10;;;;;;;13.32;74.07;99097.09;106821;1285;74621;-59
2024/02/05 06:14:57;;;;;;;5.90;2.40;;;;;;;13.32;73.78;99093.23;106891;1285;59190;-60
2024/02/05 06:17:22;;;;;;;4.60;2.20;;;;;;;13.32;73.66;99080.86;106815;1285;58324;-59
2024/02/05 06:19:48;;;;;;;3.80;1.90;;;;;;;13.32;73.54;99079.17;106758;1285;58332;-59
2024/02/05 06:22:13;;;;;;;4.90;2.10;;;;;;;13.32;73.31;99086.05;106854;1285;58544;-59
2024/02/05 06:24:39;;;;;;;7.80;2.10;;;;;;;13.31;73.20;99084.48;106817;1285;58290;-59
2024/02/05 06:27:07;;;;;;;4.60;2.30;;;;;;;13.32;72.89;99089.77;106495;1285;58318;-59
2024/02/05 06:29:32;;;;;;;4.00;2.30;;;;;;;13.32;72.80;99089.77;106668;1285;61105;-59
2024/02/05 06:31:58;;;;;;;5.20;2.40;;;;;;;13.32;72.66;99086.50;106820;1285;58427;-59
2024/02/05 06:34:23;;;;;;;4.50;2.10;;;;;;;13.31;72.58;99079.91;106828;1285;58251;-59
2024/02/05 06:36:50;;;;;;;5.30;2.10;;;;;;;13.31;72.51;99069.69;106820;1285;58411;-59
2024/02/05 06:39:15;;;;;;;2.90;1.60;;;;;;;13.30;72.41;99069.06;106702;1285;58240;-60
2024/02/05 06:41:41;;;;;;;4.80;2.30;;;;;;;13.29;72.27;99060.42;106913;1285;59220;-59
2024/02/05 06:44:06;;;;;;;4.80;2.20;;;;;;;13.29;72.14;99059.24;106720;1285;73833;-59
2024/02/05 06:46:32;;;;;;;7.00;1.90;;;;;;;13.29;72.13;99066.05;106830;1285;58217;-59
2024/02/05 06:48:58;;;;;;;3.80;2.00;;;;;;;13.28;71.86;99055.20;106773;1285;58534;-60
2024/02/05 06:51:23;;;;;;;5.20;2.40;;;;;;;13.28;71.95;99055.91;106567;1285;58696;-59
2024/02/05 06:53:49;;;;;;;4.50;2.20;;;;;;;13.28;71.78;99046.30;106696;1285;58693;-60
2024/02/05 06:56:15;;;;;;;5.30;2.20;;;;;;;13.28;71.72;99050.23;106765;1285;58280;-59
2024/02/05 06:58:41;;;;;;;4.40;2.10;;;;;;;13.28;71.57;99044.91;106751;1285;73456;-59
2024/02/05 07:01:06;;;;;;;5.20;2.30;;;;;;;13.28;71.52;99037.48;106840;1285;58218;-59
2024/02/05 07:03:32;;;;;;;4.40;2.20;;;;;;;13.28;71.42;99039.55;106800;1285;59153;-59
2024/02/05 07:05:57;;;;;;;4.00;2.10;;;;;;;13.27;71.29;99033.73;106797;1285;58206;-59
2024/02/05 07:08:23;;;;;;;4.10;2.00;;;;;;;13.27;71.31;99030.10;106821;1285;58293;-59
2024/02/05 07:10:48;;;;;;;2.80;1.90;;;;;;;13.26;71.25;99024.65;106667;1285;58589;-59
2024/02/05 07:13:14;;;;;;;4.30;2.20;;;;;;;13.26;71.15;99020.85;106861;1285;58275;-59
2024/02/05 07:15:39;;;;;;;4.60;1.90;;;;;;;13.26;71.10;99007.39;106845;1285;58520;-59
2024/02/05 07:18:05;;;;;;;5.30;2.00;;;;;;;13.26;71.05;99002.20;106787;1285;58314;-59
2024/02/05 07:20:30;;;;;;;4.00;1.90;;;;;;;13.25;70.91;98997.24;106795;1285;58404;-59
2024/02/05 07:22:56;;;;;;;10.60;2.00;;;;;;;13.26;70.91;98993.77;106808;1285;60021;-60
2024/02/05 07:25:22;;;;;;;4.50;2.00;;;;;;;13.25;70.82;98986.63;106826;1285;58763;-60
2024/02/05 07:27:47;;;;;;;4.60;2.20;;;;;;;13.25;70.74;98990.20;106835;1285;58643;-60
2024/02/05 07:30:13;;;;;;;3.90;1.90;;;;;;;13.25;70.75;98987.93;106774;1285;59249;-59
2024/02/05 07:32:39;;;;;;;4.70;2.30;;;;;;;13.25;70.70;98989.70;106606;1285;58165;-59
2024/02/05 07:35:05;;;;;;;4.00;1.90;;;;;;;13.25;70.90;98990.10;106605;1285;58332;-59
2024/02/05 07:37:33;;;;;;;4.90;2.10;;;;;;;13.25;70.90;98988.16;106785;1285;73264;-60
2024/02/05 07:40:03;;;;;;;3.90;1.90;;;;;;;13.24;70.91;98988.60;106762;1285;73281;-60
2024/02/05 07:42:29;;;;;;;5.50;2.10;;;;;;;13.24;70.74;98993.69;106771;1285;61165;-59
2024/02/05 07:44:54;;;;;;;3.90;1.70;;;;;;;13.24;70.67;98987.48;106512;1285;58711;-60
2024/02/05 07:47:20;;;;;;;4.30;2.10;;;;;;;13.23;70.63;98973.75;106785;1288;58212;-60
2024/02/05 07:49:45;;;;;;;4.50;2.00;;;;;;;13.24;70.57;98964.06;106831;1285;58628;-60
2024/02/05 07:52:12;;;;;;;3.70;1.60;;;;;;;13.24;70.47;98956.42;106821;1285;58345;-60
2024/02/05 07:54:38;;;;;;;3.50;1.80;;;;;;;13.24;70.44;98952.13;106801;1285;60234;-60
2024/02/05 07:57:06;;;;;;;3.30;1.70;;;;;;;13.25;70.34;98953.84;106596;1285;58350;-60
2024/02/05 07:59:41;;;;;;;4.40;2.00;;;;;;;13.26;70.31;98954.36;106239;1292;72692;-60
2024/02/05 08:02:16;;;;;;;4.70;2.00;;;;;;;13.26;70.21;98950.59;105792;1296;71388;-60
2024/02/05 08:05:27;;;;;;;3.10;1.80;;;;;;;13.26;70.25;98951.22;105788;1295;59227;-59
2024/02/05 08:08:15;;;;;;;3.60;1.80;;;;;;;13.27;70.08;98948.94;105452;1301;59029;-60
2024/02/05 08:15:10;;;;;;;4.70;1.60;;;;;;;13.32;70.06;98935.86;103848;1280;617765;-62
2024/02/05 08:17:35;;;;;;;4.00;2.00;;;;;;;13.29;69.99;98925.70;103690;1285;60374;-59
2024/02/05 08:20:01;;;;;;;5.60;2.30;;;;;;;13.28;69.87;98931.68;103530;1283;61029;-59
2024/02/05 08:22:28;;;;;;;5.20;2.40;;;;;;;13.26;69.92;98938.45;103155;1283;60607;-61
2024/02/05 08:24:53;;;;;;;3.90;1.90;;;;;;;13.23;69.80;98938.44;103532;1288;60400;-60
2024/02/05 08:30:39;;;;;;;3.80;1.80;;;;;;;13.19;69.50;98936.88;102536;1292;600664;-60
2024/02/05 08:33:05;;;;;;;5.60;2.00;;;;;;;13.15;69.49;98936.84;102834;1294;60495;-61
2024/02/05 08:35:30;;;;;;;3.60;2.00;;;;;;;13.12;69.44;98932.54;102755;1288;61978;-61
2024/02/05 08:37:56;;;;;;;6.00;2.00;;;;;;;13.08;69.57;98930.85;102873;1292;60408;-61
2024/02/05 08:40:21;;;;;;;3.90;2.00;;;;;;;13.06;69.77;98922.86;102873;1294;60432;-61
2024/02/05 08:42:47;;;;;;;5.50;2.20;;;;;;;13.04;69.82;98921.20;102746;1288;60469;-61
2024/02/05 08:45:12;;;;;;;4.00;2.00;;;;;;;13.02;69.92;98916.09;102692;1288;503643;-61
2024/02/05 08:47:38;;;;;;;4.00;2.00;;;;;;;12.99;70.03;98912.12;102948;1288;60373;-61
2024/02/05 08:50:05;;;;;;;4.00;2.20;;;;;;;12.96;70.17;98910.60;102886;1288;60419;-61
2024/02/05 08:52:30;;;;;;;4.30;2.00;;;;;;;12.95;70.21;98900.87;102891;1288;60408;-61
2024/02/05 08:54:56;;;;;;;6.00;2.10;;;;;;;12.93;70.39;98895.14;102732;1289;60494;-60
2024/02/05 08:57:21;;;;;;;5.00;2.10;;;;;;;12.91;70.39;98889.25;103202;1291;60341;-60
2024/02/05 08:59:50;;;;;;;5.40;2.10;;;;;;;12.89;70.52;98888.02;103037;1288;60414;-60
2024/02/05 09:02:18;;;;;;;4.10;1.90;;;;;;;12.88;70.58;98886.80;103127;1289;73545;-61
2024/02/05 09:04:44;;;;;;;3.40;1.90;;;;;;;12.87;70.68;98885.77;102964;1291;61513;-61
2024/02/05 09:07:09;;;;;;;3.70;2.00;;;;;;;12.85;70.81;98887.01;102780;1291;60431;-61
2024/02/05 09:09:36;;;;;;;4.00;2.40;;;;;;;12.84;70.83;98888.05;102887;1288;60419;-61
2024/02/05 09:12:02;;;;;;;4.70;2.10;;;;;;;12.84;70.93;98882.13;102941;1288;60535;-61
2024/02/05 09:14:28;;;;;;;4.20;1.80;;;;;;;12.83;71.04;98885.50;102694;1288;60489;-61
2024/02/05 09:16:53;;;;;;;3.90;2.00;;;;;;;12.82;71.00;98881.84;103036;1288;60428;-61
2024/02/05 09:19:36;;;;;;;3.80;1.90;;;;;;;12.84;70.99;98881.90;102378;1291;601024;-62
2024/02/05 09:22:01;;;;;;;4.10;2.10;;;;;;;12.82;71.09;98877.80;102470;1293;60474;-61
2024/02/05 09:24:27;;;;;;;3.80;1.80;;;;;;;12.82;71.09;98873.85;102483;1291;60679;-61
2024/02/05 09:26:52;;;;;;;3.80;1.60;;;;;;;12.82;71.12;98868.55;102543;1297;60435;-61
2024/02/05 09:29:18;;;;;;;3.20;2.00;;;;;;;12.81;71.12;98862.95;102492;1292;60512;-60
2024/02/05 09:31:43;;;;;;;3.20;1.60;;;;;;;12.81;71.22;98865.66;102440;1293;60467;-61
2024/02/05 09:34:09;;;;;;;4.50;1.90;;;;;;;12.81;71.28;98863.70;102667;1293;329953;-61
2024/02/05 09:36:34;;;;;;;8.00;2.20;;;;;;;12.81;71.32;98868.04;102616;1289;60363;-66
2024/02/05 09:39:00;;;;;;;3.70;2.00;;;;;;;12.81;71.57;98866.48;102990;1289;60383;-61
2024/02/05 09:41:34;;;;;;;4.30;1.70;;;;;;;12.81;71.62;98862.69;102518;1296;60435;-63
2024/02/05 09:44:03;;;;;;;6.40;2.00;;;;;;;12.80;71.78;98855.95;102504;1288;60389;-61
2024/02/05 09:46:32;;;;;;;3.20;1.50;;;;;;;12.81;71.95;98848.87;102761;1294;74169;-61
2024/02/05 09:49:03;;;;;;;6.80;1.80;;;;;;;12.81;72.02;98848.48;102862;1294;74108;-62
2024/02/05 09:51:29;;;;;;;3.40;1.60;;;;;;;12.80;72.28;98847.15;102858;1294;73892;-61
2024/02/05 09:53:57;;;;;;;4.80;2.00;;;;;;;12.81;72.38;98851.20;102894;1288;60332;-62
2024/02/05 09:56:25;;;;;;;7.90;1.90;;;;;;;12.81;72.72;98839.90;102795;1289;60861;-62
2024/02/05 09:58:54;;;;;;;4.20;1.90;;;;;;;12.80;72.75;98836.46;102773;1294;75118;-62
2024/02/05 10:01:20;;;;;;;5.90;1.90;;;;;;;12.81;73.02;98832.80;102707;1293;74906;-63
2024/02/05 10:03:47;;;;;;;4.10;1.70;;;;;;;12.82;73.35;98826.51;102719;1289;60410;-62
2024/02/05 10:06:17;;;;;;;4.50;1.90;;;;;;;12.83;73.50;98819.45;102687;1289;60338;-63
2024/02/05 10:08:44;;;;;;;3.80;1.60;;;;;;;12.84;73.78;98814.86;102725;1286;60369;-63
2024/02/05 10:11:11;;;;;;;6.20;1.80;;;;;;;12.85;73.83;98806.34;102651;1290;73682;-62
2024/02/05 10:13:38;;;;;;;3.90;1.40;;;;;;;12.86;73.75;98796.67;102861;1291;74924;-63
2024/02/05 10:16:04;;;;;;;4.90;2.00;;;;;;;12.86;74.09;98788.71;102345;1291;60378;-63
2024/02/05 10:18:29;;;;;;;5.20;2.00;;;;;;;12.87;74.33;98785.44;102710;1291;60429;-62
2024/02/05 10:20:55;;;;;;;2.60;1.70;;;;;;;12.89;74.79;98781.40;102641;1294;60492;-63
2024/02/05 10:23:21;;;;;;;6.70;2.20;;;;;;;12.90;75.60;98779.37;102581;1292;60348;-63
2024/02/05 10:25:46;;;;;;;5.40;1.90;;;;;;;12.90;76.62;98774.15;102754;1294;60495;-62
2024/02/05 10:28:11;;;;;;;15.10;1.90;;;;;;;12.91;77.42;98771.79;102559;1292;60786;-62
2024/02/05 10:30:37;;;;;;;6.00;1.70;;;;;;;12.92;78.00;98761.77;102595;1292;60427;-63
2024/02/05 10:33:04;;;;;;;5.30;2.00;;;;;;;12.94;78.33;98758.89;102565;1294;60431;-62
2024/02/05 10:35:29;;;;;;;4.40;1.90;;;;;;;12.94;78.60;98753.85;102606;1292;60367;-62
2024/02/05 10:38:08;;;;;;;3.70;1.80;;;;;;;12.95;79.06;98751.18;102707;1292;60367;-62
2024/02/05 10:40:38;;;;;;;4.40;1.90;;;;;;;12.96;79.61;98750.06;102343;1297;61579;-62
2024/02/05 10:43:05;;;;;;;4.60;2.00;;;;;;;12.97;79.96;98751.08;103085;1288;60288;-62
2024/02/05 10:45:34;;;;;;;5.80;1.80;;;;;;;12.98;80.31;98749.52;102865;1289;73613;-62
2024/02/05 10:48:01;;;;;;;4.80;2.00;;;;;;;12.99;80.50;98750.55;102884;1288;72719;-62
2024/02/05 10:50:27;;;;;;;6.50;1.70;;;;;;;13.00;80.73;98741.62;102861;1286;72991;-62
2024/02/05 10:52:54;;;;;;;4.70;1.60;;;;;;;13.00;80.99;98732.47;102771;1293;61085;-62
2024/02/05 10:55:39;;;;;;;7.70;1.90;;;;;;;13.03;81.19;98730.42;102753;1292;600229;-63
2024/02/05 10:58:06;;;;;;;5.00;2.00;;;;;;;13.02;81.59;98723.80;102725;1295;62144;-63
2024/02/05 11:00:31;;;;;;;3.30;1.60;;;;;;;13.03;81.74;98716.10;102833;1290;60991;-63
2024/02/05 11:03:07;;;;;;;9.10;1.90;;;;;;;13.03;81.87;98709.12;102724;1289;60761;-64
2024/02/05 11:05:34;;;;;;;5.00;2.00;;;;;;;13.04;82.00;98704.65;102544;1290;73864;-62
2024/02/05 11:08:11;;;;;;;4.60;2.10;;;;;;;13.05;82.22;98702.13;102638;1289;72995;-61
2024/02/05 11:10:44;;;;;;;4.30;1.90;;;;;;;13.06;82.51;98699.40;102357;1293;61971;-62
2024/02/05 11:13:23;;;;;;;5.30;1.80;;;;;;;13.06;82.47;98695.83;102780;1291;62181;-61
2024/02/05 11:15:51;;;;;;;5.10;1.80;;;;;;;13.06;82.88;98689.00;102809;1293;73398;-61
2024/02/05 11:18:29;;;;;;;3.40;1.80;;;;;;;13.07;82.98;98691.09;103043;1292;73272;-62
2024/02/05 11:20:57;;;;;;;5.00;1.90;;;;;;;13.07;83.11;98687.88;102911;1290;72532;-62
2024/02/05 11:23:25;;;;;;;4.10;1.70;;;;;;;13.08;83.34;98683.35;102892;1288;63369;-61
2024/02/05 11:25:52;;;;;;;5.60;2.10;;;;;;;13.09;82.96;98675.88;102834;1289;60338;-61
2024/02/05 11:28:28;;;;;;;4.60;1.90;;;;;;;13.09;82.71;98673.96;103318;1286;74381;-62
2024/02/05 11:31:03;;;;;;;5.00;1.80;;;;;;;13.09;82.64;98665.93;102985;1286;74701;-61